URWW 091000Z 30005MPS CAVOK M05/M10 Q1035 R24/120065 NOSIG
QNH:(hPa/inHg/mmHg)1035 / 30.56 / 776
QFE:(hPa/inHg/mmHg)1017 / 30.04 / 763
Temperature-5
Dew Point-10
Visibility> 10000
WeatherCAVOK
Cloud Cover
Transition Altitude3000 ft.
Transition LevelFL40
SQUAWK